Time,TemperatureF,DewpointF,PressureIn,WindDirection,WindDirectionDegrees,WindSpeedMPH,WindSpeedGustMPH,Humidity,HourlyPrecipIn,Conditions,Clouds,dailyrainin,SoftwareType,DateUTC
2013-10-09 00:01:00,43.5,31.4,30.57,NNW,347,0.0,0.0,62,0.00,CLR,CLR,0.00,WeatherDisplay:10.34,2013-10-09 04:01:00,
2013-10-09 00:02:00,43.5,31.4,30.57,North,351,0.0,0.0,62,0.00,CLR,CLR,0.00,WeatherDisplay:10.34,2013-10-09 04:02:00,
2013-10-09 00:03:00,43.5,31.4,30.57,NNW,347,0.0,0.0,62,0.00,CLR,CLR,0.00,WeatherDisplay:10.34,2013-10-09 04:03:00,
2013-10-09 00:04:00,43.5,31.4,30.57,North,351,0.0,0.0,62,0.00,CLR,CLR,0.00,WeatherDisplay:10.34,2013-10-09 04:04:00,
2013-10-09 00:05:00,43.5,31.4,30.57,NNW,347,0.0,0.0,62,0.00,CLR,CLR,0.00,WeatherDisplay:10.34,2013-10-09 04:05:00,
2013-10-09 00:10:00,43.3,31.2,30.57,NNW,347,0.0,0.0,62,0.00,CLR,CLR,0.00,WeatherDisplay:10.34,2013-10-09 04:10:00,
2013-10-09 00:15:00,43.2,31.0,30.57,North,351,0.0,0.0,62,0.00,CLR,CLR,0.00,WeatherDisplay:10.34,2013-10-09 04:15:00,
2013-10-09 00:17:00,43.2,31.0,30.57,North,351,0.0,0.0,62,0.00,CLR,CLR,0.00,WeatherDisplay:10.34,2013-10-09 04:17:00,
2013-10-09 00:22:00,43.0,30.8,30.57,NNW,347,0.0,0.0,62,0.00,CLR,CLR,0.00,WeatherDisplay:10.34,2013-10-09 04:22:00,
2013-10-09 00:27:00,43.2,31.4,30.57,NNW,347,0.0,0.0,63,0.00,CLR,CLR,0.00,WeatherDisplay:10.34,2013-10-09 04:27:00,
2013-10-09 00:32:00,43.0,31.2,30.57,North,351,0.0,0.0,63,0.00,CLR,CLR,0.00,WeatherDisplay:10.34,2013-10-09 04:32:00,
2013-10-09 00:37:00,42.8,30.7,30.57,NNW,347,0.0,0.0,62,0.00,CLR,CLR,0.00,WeatherDisplay:10.34,2013-10-09 04:37:00,
2013-10-09 00:42:00,42.8,31.1,30.57,NNW,346,0.0,0.0,63,0.00,CLR,CLR,0.00,WeatherDisplay:10.34,2013-10-09 04:42:00,
2013-10-09 00:47:00,42.8,31.1,30.57,North,351,0.0,0.0,63,0.00,CLR,CLR,0.00,WeatherDisplay:10.34,2013-10-09 04:47:00,
2013-10-09 00:52:00,42.8,31.1,30.57,NNW,347,0.0,0.0,63,0.00,CLR,CLR,0.00,WeatherDisplay:10.34,2013-10-09 04:52:00,
2013-10-09 00:57:00,42.8,31.5,30.57,North,351,0.0,0.0,64,0.00,CLR,CLR,0.00,WeatherDisplay:10.34,2013-10-09 04:57:00,
2013-10-09 01:02:00,42.6,30.9,30.57,North,351,0.0,0.0,63,0.00,CLR,CLR,0.00,WeatherDisplay:10.34,2013-10-09 05:02:00,
2013-10-09 01:07:00,42.6,30.9,30.57,North,351,0.0,0.0,63,0.00,CLR,CLR,0.00,WeatherDisplay:10.34,2013-10-09 05:07:00,
2013-10-09 01:12:00,42.6,30.9,30.57,NNW,347,0.0,0.0,63,0.00,CLR,CLR,0.00,WeatherDisplay:10.34,2013-10-09 05:12:00,
2013-10-09 01:17:00,42.4,30.7,30.57,North,351,0.0,0.0,63,0.00,CLR,CLR,0.00,WeatherDisplay:10.34,2013-10-09 05:17:00,
2013-10-09 01:22:00,42.4,30.7,30.57,North,351,0.0,0.0,63,0.00,CLR,CLR,0.00,WeatherDisplay:10.34,2013-10-09 05:22:00,
2013-10-09 01:27:00,42.3,30.6,30.57,North,351,0.0,0.0,63,0.00,CLR,CLR,0.00,WeatherDisplay:10.34,2013-10-09 05:27:00,
2013-10-09 01:32:00,42.1,30.4,30.57,North,351,0.0,0.0,63,0.00,CLR,CLR,0.00,WeatherDisplay:10.34,2013-10-09 05:32:00,
2013-10-09 01:37:00,42.1,30.8,30.57,North,351,0.0,0.0,64,0.00,CLR,CLR,0.00,WeatherDisplay:10.34,2013-10-09 05:37:00,
2013-10-09 01:42:00,42.1,30.8,30.57,North,351,0.0,0.0,64,0.00,CLR,CLR,0.00,WeatherDisplay:10.34,2013-10-09 05:42:00,
2013-10-09 01:47:00,42.1,30.8,30.57,North,351,0.0,0.0,64,0.00,CLR,CLR,0.00,WeatherDisplay:10.34,2013-10-09 05:47:00,
2013-10-09 01:52:00,42.1,30.8,30.57,NNW,347,0.0,0.0,64,0.00,CLR,CLR,0.00,WeatherDisplay:10.34,2013-10-09 05:52:00,
2013-10-09 01:57:00,41.9,30.6,30.57,North,351,0.0,0.0,64,0.00,CLR,CLR,0.00,WeatherDisplay:10.34,2013-10-09 05:57:00,
2013-10-09 02:02:00,41.7,30.4,30.57,North,351,0.0,0.0,64,0.00,CLR,CLR,0.00,WeatherDisplay:10.34,2013-10-09 06:02:00,
2013-10-09 02:07:00,41.5,30.3,30.57,North,351,0.0,0.0,64,0.00,CLR,CLR,0.00,WeatherDisplay:10.34,2013-10-09 06:07:00,
2013-10-09 02:12:00,41.5,31.0,30.57,NNW,347,0.0,0.0,66,0.00,CLR,CLR,0.00,WeatherDisplay:10.34,2013-10-09 06:12:00,
2013-10-09 02:17:00,41.4,30.8,30.57,North,351,0.0,0.0,66,0.00,CLR,CLR,0.00,WeatherDisplay:10.34,2013-10-09 06:17:00,
2013-10-09 02:22:00,41.2,30.7,30.57,North,351,0.0,0.0,66,0.00,CLR,CLR,0.00,WeatherDisplay:10.34,2013-10-09 06:22:00,
2013-10-09 02:27:00,41.4,31.2,30.57,NNW,347,0.0,0.0,67,0.00,CLR,CLR,0.00,WeatherDisplay:10.34,2013-10-09 06:27:00,
2013-10-09 02:32:00,41.4,31.2,30.57,NNW,347,0.0,0.0,67,0.00,CLR,CLR,0.00,WeatherDisplay:10.34,2013-10-09 06:32:00,
2013-10-09 02:37:00,41.2,31.0,30.57,NNW,347,0.0,0.0,67,0.00,CLR,CLR,0.00,WeatherDisplay:10.34,2013-10-09 06:37:00,
2013-10-09 02:42:00,41.4,31.2,30.57,NNW,347,0.0,0.0,67,0.00,CLR,CLR,0.00,WeatherDisplay:10.34,2013-10-09 06:42:00,
2013-10-09 02:47:00,41.2,30.7,30.57,North,351,0.0,0.0,66,0.00,CLR,CLR,0.00,WeatherDisplay:10.34,2013-10-09 06:47:00,
2013-10-09 02:52:00,41.2,31.0,30.57,North,351,0.0,0.0,67,0.00,CLR,CLR,0.00,WeatherDisplay:10.34,2013-10-09 06:52:00,
2013-10-09 02:57:00,41.2,31.0,30.57,North,351,0.0,0.0,67,0.00,CLR,CLR,0.00,WeatherDisplay:10.34,2013-10-09 06:57:00,
2013-10-09 03:02:00,41.2,31.0,30.57,NNW,347,0.0,0.0,67,0.00,CLR,CLR,0.00,WeatherDisplay:10.34,2013-10-09 07:02:00,
2013-10-09 03:07:00,41.0,30.9,30.57,North,351,0.0,0.0,67,0.00,CLR,CLR,0.00,WeatherDisplay:10.34,2013-10-09 07:07:00,
2013-10-09 03:13:00,41.0,30.9,30.57,NNW,347,0.0,3.0,67,0.00,CLR,CLR,0.00,WeatherDisplay:10.34,2013-10-09 07:13:00,
2013-10-09 03:18:00,40.8,31.1,30.57,North,351,0.0,0.0,68,0.00,CLR,CLR,0.00,WeatherDisplay:10.34,2013-10-09 07:18:00,
2013-10-09 03:23:00,40.8,31.1,30.57,North,351,0.0,0.0,68,0.00,CLR,CLR,0.00,WeatherDisplay:10.34,2013-10-09 07:23:00,
2013-10-09 03:28:00,40.8,31.1,30.60,North,351,0.0,0.0,68,0.00,CLR,CLR,0.00,WeatherDisplay:10.34,2013-10-09 07:28:00,
2013-10-09 03:33:00,40.8,31.1,30.60,North,351,0.0,0.0,68,0.00,CLR,CLR,0.00,WeatherDisplay:10.34,2013-10-09 07:33:00,
2013-10-09 19:13:00,48.7,35.9,30.57,West,274,0.0,0.0,61,0.00,CLR,CLR,0.00,WeatherDisplay:10.34,2013-10-09 23:13:00,
2013-10-09 19:18:00,48.6,36.1,30.56,West,274,0.0,0.0,62,0.00,CLR,CLR,0.00,WeatherDisplay:10.34,2013-10-09 23:18:00,
2013-10-09 19:23:00,48.6,36.1,30.56,West,274,0.0,0.0,62,0.00,CLR,CLR,0.00,WeatherDisplay:10.34,2013-10-09 23:23:00,
2013-10-09 19:28:00,48.4,36.4,30.56,West,274,0.0,2.0,63,0.00,CLR,CLR,0.00,WeatherDisplay:10.34,2013-10-09 23:28:00,
2013-10-09 19:33:00,48.2,36.6,30.56,West,274,0.0,0.0,64,0.00,CLR,CLR,0.00,WeatherDisplay:10.34,2013-10-09 23:33:00,
2013-10-09 19:38:00,48.0,36.4,30.56,West,274,3.0,0.0,64,0.00,CLR,CLR,0.00,WeatherDisplay:10.34,2013-10-09 23:38:00,
2013-10-09 19:43:00,48.0,36.8,30.56,West,274,0.0,0.0,65,0.00,CLR,CLR,0.00,WeatherDisplay:10.34,2013-10-09 23:43:00,
2013-10-09 19:48:00,48.0,37.2,30.56,West,274,0.0,0.0,66,0.00,CLR,CLR,0.00,WeatherDisplay:10.34,2013-10-09 23:48:00,
2013-10-09 19:53:00,48.0,37.2,30.56,West,274,0.0,0.0,66,0.00,CLR,CLR,0.00,WeatherDisplay:10.34,2013-10-09 23:53:00,
2013-10-09 19:58:00,47.8,37.0,30.56,West,274,0.0,0.0,66,0.00,CLR,CLR,0.00,WeatherDisplay:10.34,2013-10-09 23:58:00,
2013-10-09 20:03:00,47.8,37.0,30.56,West,274,0.0,0.0,66,0.00,CLR,CLR,0.00,WeatherDisplay:10.34,2013-10-10 00:03:00,
2013-10-09 20:08:00,47.8,37.0,30.56,West,274,0.0,0.0,66,0.00,CLR,CLR,0.00,WeatherDisplay:10.34,2013-10-10 00:08:00,
2013-10-09 20:13:00,47.7,37.2,30.56,West,274,0.0,0.0,67,0.00,CLR,CLR,0.00,WeatherDisplay:10.34,2013-10-10 00:13:00,
2013-10-09 20:18:00,47.5,37.1,30.56,West,274,0.0,3.0,67,0.00,CLR,CLR,0.00,WeatherDisplay:10.34,2013-10-10 00:18:00,
2013-10-09 20:23:00,47.5,37.1,30.56,West,274,0.0,0.0,67,0.00,CLR,CLR,0.00,WeatherDisplay:10.34,2013-10-10 00:23:00,
2013-10-09 20:28:00,47.3,37.3,30.56,West,274,0.0,0.0,68,0.00,CLR,CLR,0.00,WeatherDisplay:10.34,2013-10-10 00:28:00,
2013-10-09 20:33:00,47.3,37.6,30.56,West,274,0.0,0.0,69,0.00,CLR,CLR,0.00,WeatherDisplay:10.34,2013-10-10 00:33:00,
2013-10-09 20:38:00,47.1,37.8,30.56,West,274,0.0,0.0,70,0.00,CLR,CLR,0.00,WeatherDisplay:10.34,2013-10-10 00:38:00,
2013-10-09 20:43:00,47.1,37.8,30.57,West,274,0.0,0.0,70,0.00,CLR,CLR,0.00,WeatherDisplay:10.34,2013-10-10 00:43:00,
2013-10-09 20:48:00,47.1,38.2,30.57,West,274,0.0,0.0,71,0.00,CLR,CLR,0.00,WeatherDisplay:10.34,2013-10-10 00:48:00,
2013-10-09 20:53:00,47.1,38.2,30.57,West,274,0.0,0.0,71,0.00,CLR,CLR,0.00,WeatherDisplay:10.34,2013-10-10 00:53:00,
2013-10-09 20:58:00,46.9,38.0,30.57,West,274,0.0,0.0,71,0.00,CLR,CLR,0.00,WeatherDisplay:10.34,2013-10-10 00:58:00,
2013-10-09 21:03:00,46.9,38.0,30.57,West,274,0.0,0.0,71,0.00,CLR,CLR,0.00,WeatherDisplay:10.34,2013-10-10 01:03:00,
2013-10-09 21:08:00,46.8,38.2,30.57,West,274,0.0,0.0,72,0.00,CLR,CLR,0.00,WeatherDisplay:10.34,2013-10-10 01:08:00,
2013-10-09 21:13:00,46.6,38.0,30.57,West,274,0.0,0.0,72,0.00,CLR,CLR,0.00,WeatherDisplay:10.34,2013-10-10 01:13:00,
2013-10-09 21:18:00,46.6,38.0,30.57,West,274,0.0,0.0,72,0.00,CLR,CLR,0.00,WeatherDisplay:10.34,2013-10-10 01:18:00,
2013-10-09 21:23:00,46.6,38.4,30.57,West,274,0.0,0.0,73,0.00,CLR,CLR,0.00,WeatherDisplay:10.34,2013-10-10 01:23:00,
2013-10-09 21:28:00,46.6,38.4,30.57,West,274,3.0,3.0,73,0.00,CLR,CLR,0.00,WeatherDisplay:10.34,2013-10-10 01:28:00,
2013-10-09 21:33:00,46.6,38.4,30.57,West,274,0.0,0.0,73,0.00,CLR,CLR,0.00,WeatherDisplay:10.34,2013-10-10 01:33:00,
2013-10-09 21:38:00,46.4,38.2,30.57,West,274,0.0,0.0,73,0.00,CLR,CLR,0.00,WeatherDisplay:10.34,2013-10-10 01:38:00,
2013-10-09 21:43:00,46.4,38.2,30.57,West,274,0.0,0.0,73,0.00,CLR,CLR,0.00,WeatherDisplay:10.34,2013-10-10 01:43:00,
2013-10-09 21:48:00,46.2,38.0,30.57,West,274,0.0,0.0,73,0.00,CLR,CLR,0.00,WeatherDisplay:10.34,2013-10-10 01:48:00,
2013-10-09 21:53:00,46.2,38.4,30.57,West,274,0.0,0.0,74,0.00,CLR,CLR,0.00,WeatherDisplay:10.34,2013-10-10 01:53:00,
2013-10-09 21:58:00,46.2,38.4,30.57,West,274,0.0,0.0,74,0.00,CLR,CLR,0.00,WeatherDisplay:10.34,2013-10-10 01:58:00,
2013-10-09 22:03:00,46.2,38.4,30.57,West,274,0.0,0.0,74,0.00,CLR,CLR,0.00,WeatherDisplay:10.34,2013-10-10 02:03:00,
2013-10-09 22:08:00,46.0,38.2,30.57,West,274,0.0,0.0,74,0.00,CLR,CLR,0.00,WeatherDisplay:10.34,2013-10-10 02:08:00,
2013-10-09 22:13:00,46.0,38.6,30.57,West,274,0.0,0.0,75,0.00,CLR,CLR,0.00,WeatherDisplay:10.34,2013-10-10 02:13:00,
2013-10-09 22:18:00,45.9,38.4,30.57,West,274,0.0,0.0,75,0.00,CLR,CLR,0.00,WeatherDisplay:10.34,2013-10-10 02:18:00,
2013-10-09 22:23:00,46.0,38.6,30.57,West,274,0.0,0.0,75,0.00,CLR,CLR,0.00,WeatherDisplay:10.34,2013-10-10 02:23:00,
2013-10-09 22:28:00,46.0,38.6,30.54,West,274,0.0,0.0,75,0.00,CLR,CLR,0.00,WeatherDisplay:10.34,2013-10-10 02:28:00,
2013-10-09 22:33:00,46.0,38.6,30.54,West,274,0.0,0.0,75,0.00,CLR,CLR,0.00,WeatherDisplay:10.34,2013-10-10 02:33:00,
2013-10-09 22:38:00,46.0,38.6,30.54,West,274,0.0,0.0,75,0.00,CLR,CLR,0.00,WeatherDisplay:10.34,2013-10-10 02:38:00,
2013-10-09 22:43:00,46.0,38.9,30.54,West,274,0.0,0.0,76,0.00,CLR,CLR,0.00,WeatherDisplay:10.34,2013-10-10 02:43:00,
2013-10-09 22:48:00,46.2,39.1,30.54,West,272,3.0,0.0,76,0.00,CLR,CLR,0.00,WeatherDisplay:10.34,2013-10-10 02:48:00,
2013-10-09 22:53:00,46.2,39.1,30.54,West,272,3.0,3.0,76,0.00,CLR,CLR,0.00,WeatherDisplay:10.34,2013-10-10 02:53:00,
2013-10-09 22:58:00,46.2,39.1,30.54,WNW,292,0.0,0.0,76,0.00,CLR,CLR,0.00,WeatherDisplay:10.34,2013-10-10 02:58:00,
2013-10-09 23:03:00,46.2,39.1,30.54,NNW,338,0.0,3.0,76,0.00,CLR,CLR,0.00,WeatherDisplay:10.34,2013-10-10 03:03:00,
2013-10-09 23:08:00,46.4,39.2,30.54,NNW,331,0.0,0.0,76,0.00,CLR,CLR,0.00,WeatherDisplay:10.34,2013-10-10 03:08:00,
2013-10-09 23:13:00,46.6,39.4,30.54,West,280,0.0,6.0,76,0.00,CLR,CLR,0.00,WeatherDisplay:10.34,2013-10-10 03:13:00,
2013-10-09 23:18:00,46.6,39.4,30.54,West,276,0.0,5.0,76,0.00,CLR,CLR,0.00,WeatherDisplay:10.34,2013-10-10 03:18:00,
2013-10-09 23:23:00,46.6,39.4,30.54,West,276,0.0,0.0,76,0.00,CLR,CLR,0.00,WeatherDisplay:10.34,2013-10-10 03:23:00,
2013-10-09 23:28:00,46.6,39.4,30.55,NW,325,0.0,3.0,76,0.00,CLR,CLR,0.00,WeatherDisplay:10.34,2013-10-10 03:28:00,
2013-10-09 23:33:00,46.6,39.4,30.55,NW,312,0.0,5.0,76,0.00,CLR,CLR,0.00,WeatherDisplay:10.34,2013-10-10 03:33:00,
2013-10-09 23:39:00,46.4,38.9,30.55,NW,312,0.0,0.0,75,0.00,CLR,CLR,0.00,WeatherDisplay:10.34,2013-10-10 03:39:00,
2013-10-09 23:44:00,46.4,38.9,30.55,NW,312,0.0,0.0,75,0.00,CLR,CLR,0.00,WeatherDisplay:10.34,2013-10-10 03:44:00,
2013-10-09 23:49:00,46.4,38.9,30.55,NW,312,0.0,0.0,75,0.00,CLR,CLR,0.00,WeatherDisplay:10.34,2013-10-10 03:49:00,
2013-10-09 23:54:00,46.2,38.7,30.55,NW,312,0.0,0.0,75,0.00,CLR,CLR,0.00,WeatherDisplay:10.34,2013-10-10 03:54:00,
2013-10-09 23:59:00,46.0,38.6,30.55,NW,312,0.0,0.0,75,0.00,CLR,CLR,0.00,WeatherDisplay:10.34,2013-10-10 03:59:00,